createdAt,value
2023-01-30T00:01:09.234Z,-3.30
2023-01-30T00:03:39.185Z,-3.20
2023-01-30T00:06:11.850Z,-3.20
2023-01-30T00:08:41.800Z,-3.10
2023-01-30T00:11:13.688Z,-3.20
2023-01-30T00:13:44.361Z,-3.30
2023-01-30T00:16:14.992Z,-3.40
2023-01-30T00:18:45.364Z,-3.40
2023-01-30T00:21:18.316Z,-3.30
2023-01-30T00:23:48.423Z,-3.30
2023-01-30T00:26:18.636Z,-3.30
2023-01-30T00:28:48.603Z,-3.30
2023-01-30T00:31:18.560Z,-3.50
2023-01-30T00:33:48.531Z,-3.40
2023-01-30T00:36:21.088Z,-3.40
2023-01-30T00:38:51.022Z,-3.40
2023-01-30T00:41:21.927Z,-3.30
2023-01-30T00:44:04.236Z,-3.30
2023-01-30T00:46:48.375Z,-3.30
2023-01-30T00:49:18.479Z,-3.30
2023-01-30T00:51:51.809Z,-3.20
2023-01-30T00:54:21.815Z,-3.20
2023-01-30T00:56:51.815Z,-3.30
2023-01-30T00:59:21.801Z,-3.40
2023-01-30T01:01:51.799Z,-3.30
2023-01-30T01:04:21.757Z,-3.40
2023-01-30T01:06:54.411Z,-3.30
2023-01-30T01:09:24.376Z,-3.30
2023-01-30T01:11:55.753Z,-3.30
2023-01-30T01:14:25.732Z,-3.20
2023-01-30T01:16:55.996Z,-3.30
2023-01-30T01:19:26.006Z,-3.50
2023-01-30T01:21:58.609Z,-3.50
2023-01-30T01:24:30.328Z,-3.50
2023-01-30T01:27:00.276Z,-3.50
2023-01-30T01:29:30.381Z,-3.50
2023-01-30T01:32:01.248Z,-3.50
2023-01-30T01:34:31.401Z,-3.50
2023-01-30T01:37:04.366Z,-3.50
2023-01-30T01:39:46.558Z,-3.50
2023-01-30T01:42:16.505Z,-3.60
2023-01-30T01:45:07.602Z,-3.60
2023-01-30T01:47:38.159Z,-3.50
2023-01-30T01:50:08.884Z,-3.50
2023-01-30T01:52:41.490Z,-3.50
2023-01-30T01:55:11.721Z,-3.50
2023-01-30T01:57:44.365Z,-3.60
2023-01-30T02:00:16.427Z,-3.60
2023-01-30T02:02:49.611Z,-3.60
2023-01-30T02:05:22.254Z,-3.60
2023-01-30T02:07:58.631Z,-3.70
2023-01-30T02:10:33.694Z,-3.70
2023-01-30T02:13:03.661Z,-3.70
2023-01-30T02:15:33.832Z,-3.70
2023-01-30T02:18:03.853Z,-3.60
2023-01-30T02:20:51.211Z,-3.60
2023-01-30T02:23:59.823Z,-3.60
2023-01-30T02:26:49.538Z,-3.60
2023-01-30T02:29:41.934Z,-3.60
2023-01-30T02:32:17.961Z,-3.60
2023-01-30T02:34:54.484Z,-3.60
2023-01-30T02:37:32.253Z,-3.50
2023-01-30T02:40:11.889Z,-3.50
2023-01-30T02:42:47.792Z,-3.50
2023-01-30T02:45:21.898Z,-3.50
2023-01-30T02:47:59.724Z,-3.50
2023-01-30T02:50:33.404Z,-3.40
2023-01-30T02:53:03.588Z,-3.50
2023-01-30T02:55:34.654Z,-3.50
2023-01-30T02:58:05.725Z,-3.50
2023-01-30T03:00:48.933Z,-3.40
2023-01-30T03:03:38.576Z,-3.40
2023-01-30T03:06:31.690Z,-3.30
2023-01-30T03:09:11.721Z,-3.30
2023-01-30T03:11:48.936Z,-3.40
2023-01-30T03:14:24.984Z,-3.40
2023-01-30T03:16:57.773Z,-3.40
2023-01-30T03:19:32.369Z,-3.30
2023-01-30T03:22:03.405Z,-3.30
2023-01-30T03:24:33.801Z,-3.30
2023-01-30T03:27:09.083Z,-3.30
2023-01-30T03:29:40.442Z,-3.20
2023-01-30T03:32:10.525Z,-3.30
2023-01-30T03:34:43.120Z,-3.30
2023-01-30T03:37:13.538Z,-3.30
2023-01-30T03:39:43.768Z,-3.30
2023-01-30T03:42:14.113Z,-3.30
2023-01-30T03:44:44.151Z,-3.20
2023-01-30T03:47:14.139Z,-3.20
2023-01-30T03:49:46.873Z,-3.20
2023-01-30T03:52:16.855Z,-3.20
2023-01-30T03:54:47.069Z,-3.20
2023-01-30T03:57:18.197Z,-3.10
2023-01-30T03:59:48.301Z,-3.20
2023-01-30T04:02:22.445Z,-3.10
2023-01-30T04:04:56.501Z,-3.10
2023-01-30T04:07:26.524Z,-2.90
2023-01-30T04:09:56.508Z,-3.00
2023-01-30T04:12:26.776Z,-2.90
2023-01-30T04:15:00.834Z,-3.00
2023-01-30T04:17:51.099Z,-2.90
2023-01-30T04:20:48.487Z,-3.00
2023-01-30T04:23:23.022Z,-3.00
2023-01-30T04:25:53.858Z,-3.00
2023-01-30T04:28:26.829Z,-3.00
2023-01-30T04:30:57.489Z,-2.90
2023-01-30T04:33:45.656Z,-2.90
2023-01-30T04:36:19.020Z,-2.90
2023-01-30T04:38:49.536Z,-2.80
2023-01-30T04:41:21.443Z,-2.80
2023-01-30T04:43:51.850Z,-2.80
2023-01-30T04:46:48.216Z,-2.70
2023-01-30T04:49:18.958Z,-2.80
2023-01-30T04:51:53.487Z,-2.70
2023-01-30T04:54:23.756Z,-2.70
2023-01-30T04:56:53.795Z,-2.70
2023-01-30T04:59:23.844Z,-2.70
2023-01-30T05:01:55.053Z,-2.70
2023-01-30T05:04:25.188Z,-2.70
2023-01-30T05:06:57.688Z,-2.70
2023-01-30T05:09:29.530Z,-2.70
2023-01-30T05:11:59.663Z,-2.80
2023-01-30T05:14:29.696Z,-2.70
2023-01-30T05:16:59.701Z,-2.70
2023-01-30T05:19:29.760Z,-2.60
2023-01-30T05:22:02.312Z,-2.60
2023-01-30T05:24:32.314Z,-2.60
2023-01-30T05:27:02.294Z,-2.50
2023-01-30T05:29:32.318Z,-2.50
2023-01-30T05:32:02.271Z,-2.60
2023-01-30T05:34:32.340Z,-2.60
2023-01-30T05:37:04.850Z,-2.60
2023-01-30T05:39:34.965Z,-2.60
2023-01-30T05:42:04.894Z,-2.50
2023-01-30T05:44:34.874Z,-2.60
2023-01-30T05:47:04.853Z,-2.50
2023-01-30T05:49:34.811Z,-2.50
2023-01-30T05:52:07.694Z,-2.40
2023-01-30T05:54:38.135Z,-2.40
2023-01-30T05:57:08.329Z,-2.40
2023-01-30T05:59:38.740Z,-2.40
2023-01-30T06:02:11.021Z,-2.40
2023-01-30T06:04:41.123Z,-2.30
2023-01-30T06:07:13.668Z,-2.30
2023-01-30T06:09:43.794Z,-2.30
2023-01-30T06:12:13.706Z,-2.30
2023-01-30T06:14:43.685Z,-2.40
2023-01-30T06:17:13.732Z,-2.40
2023-01-30T06:19:43.679Z,-2.30
2023-01-30T06:22:16.195Z,-2.30
2023-01-30T06:24:46.131Z,-2.40
2023-01-30T06:27:16.199Z,-2.40
2023-01-30T06:29:46.176Z,-2.40
2023-01-30T06:32:16.088Z,-2.40
2023-01-30T06:34:45.999Z,-2.30
2023-01-30T06:37:18.538Z,-2.40
2023-01-30T06:39:48.468Z,-2.40
2023-01-30T06:45:26.452Z,-2.30
2023-01-30T06:47:58.042Z,-2.20
2023-01-30T06:50:29.491Z,-2.20
2023-01-30T06:53:04.179Z,-2.20
2023-01-30T06:55:38.215Z,-2.10
2023-01-30T06:58:09.090Z,-2.00
2023-01-30T07:00:40.166Z,-2.00
2023-01-30T07:03:13.821Z,-1.80
2023-01-30T07:05:44.322Z,-1.70
2023-01-30T07:08:17.909Z,-1.70
2023-01-30T07:10:48.545Z,-1.60
2023-01-30T07:13:18.480Z,-1.50
2023-01-30T07:15:48.927Z,-1.50
2023-01-30T07:18:18.888Z,-1.40
2023-01-30T07:20:50.436Z,-1.40
2023-01-30T07:23:23.039Z,-1.40
2023-01-30T07:25:53.168Z,-1.40
2023-01-30T07:28:23.146Z,-1.30
2023-01-30T07:30:53.293Z,-1.30
2023-01-30T07:33:23.466Z,-1.30
2023-01-30T07:35:53.411Z,-1.40
2023-01-30T07:38:26.049Z,-1.40
2023-01-30T07:40:56.079Z,-1.30
2023-01-30T07:43:26.079Z,-1.30
2023-01-30T07:45:56.339Z,-1.30
2023-01-30T07:48:26.401Z,-1.30
2023-01-30T07:50:59.289Z,-1.30
2023-01-30T07:53:31.870Z,-1.20
2023-01-30T07:56:01.842Z,-1.10
2023-01-30T07:58:31.810Z,-1.10
2023-01-30T08:01:01.834Z,-1.10
2023-01-30T08:03:31.794Z,-1.10
2023-01-30T08:06:01.765Z,-1.00
2023-01-30T08:08:34.363Z,-1.00
2023-01-30T08:11:04.414Z,-0.90
2023-01-30T08:13:34.365Z,-0.90
2023-01-30T08:16:04.701Z,-0.90
2023-01-30T08:18:35.588Z,-0.80
2023-01-30T08:21:07.282Z,-0.80
2023-01-30T08:23:39.875Z,-0.70
2023-01-30T08:26:09.977Z,-0.70
2023-01-30T08:28:40.006Z,-0.60
2023-01-30T08:31:13.306Z,-0.60
2023-01-30T08:33:43.356Z,-0.60
2023-01-30T08:36:13.651Z,-0.60
2023-01-30T08:38:46.299Z,-0.60
2023-01-30T08:41:16.271Z,-0.60
2023-01-30T08:43:46.206Z,-0.60
2023-01-30T08:46:17.565Z,-0.60
2023-01-30T08:48:50.272Z,-0.50
2023-01-30T08:51:20.668Z,-0.50
2023-01-30T08:53:53.244Z,-0.40
2023-01-30T08:56:23.213Z,-0.30
2023-01-30T08:58:53.185Z,-0.20
2023-01-30T09:01:23.502Z,-0.20
2023-01-30T09:03:53.487Z,0.00
2023-01-30T09:06:26.102Z,0.00
2023-01-30T09:08:58.923Z,0.30
2023-01-30T09:11:28.990Z,0.20
2023-01-30T09:13:58.960Z,0.20
2023-01-30T09:16:28.956Z,0.30
2023-01-30T09:18:59.567Z,0.50
2023-01-30T09:21:29.703Z,0.40
2023-01-30T09:24:02.264Z,0.40
2023-01-30T09:26:32.303Z,0.40
2023-01-30T09:29:02.263Z,0.40
2023-01-30T09:31:32.292Z,0.50
2023-01-30T09:34:02.348Z,0.50
2023-01-30T09:36:32.319Z,0.50
2023-01-30T09:39:04.927Z,0.40
2023-01-30T09:41:55.809Z,0.30
2023-01-30T09:44:52.805Z,0.30
2023-01-30T09:47:27.734Z,0.20
2023-01-30T09:50:06.321Z,0.10
2023-01-30T09:52:46.916Z,0.10
2023-01-30T09:55:23.356Z,0.10
2023-01-30T09:57:54.309Z,0.10
2023-01-30T10:00:29.548Z,0.00
2023-01-30T10:03:04.872Z,0.00
2023-01-30T10:05:39.883Z,0.10
2023-01-30T10:08:23.457Z,0.10
2023-01-30T10:11:10.122Z,0.10
2023-01-30T10:13:54.621Z,0.20
2023-01-30T10:16:30.005Z,0.20
2023-01-30T10:19:16.070Z,0.30
2023-01-30T10:21:52.272Z,0.40
2023-01-30T10:24:34.021Z,0.50
2023-01-30T10:27:06.925Z,0.60
2023-01-30T10:29:39.910Z,0.60
2023-01-30T10:32:14.800Z,0.70
2023-01-30T10:34:47.570Z,0.90
2023-01-30T10:37:21.462Z,1.00
2023-01-30T10:39:55.998Z,1.10
2023-01-30T10:42:33.174Z,1.00
2023-01-30T10:45:09.919Z,1.00
2023-01-30T10:47:51.332Z,1.00
2023-01-30T10:50:23.012Z,1.00
2023-01-30T10:52:57.902Z,1.20
2023-01-30T10:55:37.713Z,1.40
2023-01-30T10:58:17.968Z,1.60
2023-01-30T11:00:53.522Z,1.60
2023-01-30T11:03:31.772Z,1.70
2023-01-30T11:06:03.745Z,1.60
2023-01-30T11:08:34.778Z,1.40
2023-01-30T11:11:04.950Z,1.30
2023-01-30T11:13:37.700Z,1.30
2023-01-30T11:16:09.822Z,1.30
2023-01-30T11:19:18.757Z,1.40
2023-01-30T11:21:44.763Z,1.30
2023-01-30T11:24:18.455Z,1.50
2023-01-30T11:26:48.960Z,1.70
2023-01-30T11:29:28.744Z,1.80
2023-01-30T11:31:59.101Z,1.80
2023-01-30T11:34:29.096Z,1.80
2023-01-30T11:37:15.710Z,1.70
2023-01-30T11:39:53.581Z,1.70
2023-01-30T11:42:26.113Z,1.70
2023-01-30T11:45:16.754Z,1.70
2023-01-30T11:47:57.703Z,1.80
2023-01-30T11:50:36.288Z,1.80
2023-01-30T11:53:30.610Z,1.90
2023-01-30T11:56:08.367Z,2.00
2023-01-30T11:58:41.876Z,2.10
2023-01-30T12:01:16.334Z,2.00
2023-01-30T12:03:51.651Z,2.10
2023-01-30T12:06:25.890Z,2.20
2023-01-30T12:08:57.618Z,2.10
2023-01-30T12:11:30.267Z,1.90
2023-01-30T12:14:11.388Z,2.00
2023-01-30T12:16:53.546Z,2.10
2023-01-30T12:19:32.611Z,2.00
2023-01-30T12:22:05.592Z,2.10
2023-01-30T12:24:41.436Z,2.10
2023-01-30T12:27:16.902Z,2.10
2023-01-30T12:29:56.181Z,2.00
2023-01-30T12:32:30.456Z,1.90
2023-01-30T12:35:00.423Z,1.90
2023-01-30T12:37:45.833Z,1.90
2023-01-30T12:40:24.632Z,1.90
2023-01-30T12:43:17.513Z,2.00
2023-01-30T12:45:52.623Z,2.00
2023-01-30T12:49:12.450Z,2.00
2023-01-30T12:52:16.816Z,2.10
2023-01-30T12:54:55.665Z,2.10
2023-01-30T12:57:31.644Z,2.10
2023-01-30T13:00:12.648Z,2.10
2023-01-30T13:02:58.853Z,2.10
2023-01-30T13:05:40.730Z,2.10
2023-01-30T13:08:21.599Z,2.20
2023-01-30T13:10:55.091Z,2.10
2023-01-30T13:13:30.242Z,2.10
2023-01-30T13:16:06.757Z,2.10
2023-01-30T13:18:41.963Z,2.00
2023-01-30T13:21:18.239Z,2.00
2023-01-30T13:23:58.286Z,2.00
2023-01-30T13:26:34.428Z,1.90
2023-01-30T13:29:07.083Z,1.90
2023-01-30T13:31:40.127Z,1.90
2023-01-30T13:34:14.707Z,1.90
2023-01-30T13:36:50.855Z,1.80
2023-01-30T13:39:27.575Z,1.80
2023-01-30T13:41:59.697Z,1.90
2023-01-30T13:44:32.144Z,2.00
2023-01-30T13:47:11.197Z,2.00
2023-01-30T13:49:46.417Z,2.00
2023-01-30T13:52:27.085Z,1.90
2023-01-30T13:55:02.565Z,1.90
2023-01-30T13:57:43.497Z,1.80
2023-01-30T14:00:29.942Z,1.80
2023-01-30T14:03:18.363Z,1.80
2023-01-30T14:06:07.450Z,1.80
2023-01-30T14:08:43.340Z,1.70
2023-01-30T14:11:35.729Z,1.60
2023-01-30T14:14:08.938Z,1.60
2023-01-30T14:16:46.951Z,1.60
2023-01-30T14:19:44.959Z,1.60
2023-01-30T14:22:24.220Z,1.60
2023-01-30T14:25:24.131Z,1.60
2023-01-30T14:27:57.871Z,1.50
2023-01-30T14:30:42.950Z,1.60
2023-01-30T14:33:37.233Z,1.70
2023-01-30T14:36:37.961Z,1.60
2023-01-30T14:39:37.853Z,1.60
2023-01-30T14:42:24.597Z,1.60
2023-01-30T14:45:18.065Z,1.70
2023-01-30T14:47:50.927Z,1.70
2023-01-30T14:50:25.055Z,1.80
2023-01-30T14:53:00.725Z,1.80
2023-01-30T14:55:31.508Z,1.80
2023-01-30T14:58:03.555Z,1.80
2023-01-30T15:00:38.271Z,1.80
2023-01-30T15:03:12.229Z,1.70
2023-01-30T15:05:45.138Z,1.70
2023-01-30T15:08:18.606Z,1.70
2023-01-30T15:10:58.792Z,1.60
2023-01-30T15:13:50.661Z,1.60
2023-01-30T15:16:41.469Z,1.70
2023-01-30T15:19:23.997Z,1.60
2023-01-30T15:22:02.758Z,1.60
2023-01-30T15:24:58.314Z,1.60
2023-01-30T15:27:33.893Z,1.50
2023-01-30T15:30:21.658Z,1.50
2023-01-30T15:33:10.540Z,1.50
2023-01-30T15:35:41.469Z,1.50
2023-01-30T15:38:26.823Z,1.50
2023-01-30T15:40:57.073Z,1.40
2023-01-30T15:43:45.519Z,1.50
2023-01-30T15:46:21.553Z,1.40
2023-01-30T15:49:04.762Z,1.40
2023-01-30T15:51:35.270Z,1.50
2023-01-30T15:54:11.268Z,1.50
2023-01-30T15:56:42.289Z,1.50
2023-01-30T15:59:28.060Z,1.50
2023-01-30T16:02:08.176Z,1.50
2023-01-30T16:04:40.838Z,1.50
2023-01-30T16:07:20.500Z,1.60
2023-01-30T16:10:13.127Z,1.60
2023-01-30T16:12:43.601Z,1.70
2023-01-30T16:15:20.072Z,1.70
2023-01-30T16:18:02.302Z,1.60
2023-01-30T16:20:40.217Z,1.60
2023-01-30T16:23:22.499Z,1.70
2023-01-30T16:25:52.878Z,1.60
2023-01-30T16:28:23.710Z,1.60
2023-01-30T16:31:00.741Z,1.70
2023-01-30T16:33:36.716Z,1.70
2023-01-30T16:36:33.024Z,1.80
2023-01-30T16:39:03.431Z,1.80
2023-01-30T16:41:39.491Z,1.80
2023-01-30T16:44:11.942Z,1.80
2023-01-30T16:46:53.209Z,1.70
2023-01-30T16:49:25.573Z,1.80
2023-01-30T16:52:06.559Z,1.90
2023-01-30T16:54:37.007Z,1.90
2023-01-30T16:57:07.648Z,1.90
2023-01-30T16:59:38.518Z,1.90
2023-01-30T17:02:10.108Z,1.90
2023-01-30T17:04:42.068Z,1.90
2023-01-30T17:07:35.688Z,2.00
2023-01-30T17:10:05.832Z,1.90
2023-01-30T17:12:40.897Z,1.90
2023-01-30T17:15:28.501Z,1.90
2023-01-30T17:17:58.480Z,2.00
2023-01-30T17:20:34.644Z,2.00
2023-01-30T17:23:09.843Z,2.00
2023-01-30T17:25:42.718Z,2.00
2023-01-30T17:28:21.746Z,2.00
2023-01-30T17:30:52.343Z,1.90
2023-01-30T17:33:22.398Z,2.00
2023-01-30T17:35:52.400Z,2.00
2023-01-30T17:38:24.963Z,2.10
2023-01-30T17:40:54.959Z,2.10
2023-01-30T17:43:24.927Z,2.10
2023-01-30T17:45:56.785Z,2.10
2023-01-30T17:48:27.554Z,2.00
2023-01-30T17:50:57.541Z,1.90
2023-01-30T17:53:30.115Z,1.70
2023-01-30T17:56:00.116Z,1.50
2023-01-30T17:58:30.205Z,1.30
2023-01-30T18:01:00.261Z,1.10
2023-01-30T18:03:30.242Z,1.00
2023-01-30T18:06:00.271Z,1.00
2023-01-30T18:08:32.849Z,1.00
2023-01-30T18:11:02.796Z,1.00
2023-01-30T18:13:34.097Z,1.10
2023-01-30T18:16:04.975Z,1.20
2023-01-30T18:18:35.241Z,1.20
2023-01-30T18:21:05.288Z,1.20
2023-01-30T18:23:37.946Z,1.30
2023-01-30T18:26:08.186Z,1.30
2023-01-30T18:28:38.143Z,1.30
2023-01-30T18:31:08.708Z,1.30
2023-01-30T18:33:38.698Z,1.30
2023-01-30T18:36:09.805Z,1.30
2023-01-30T18:38:42.507Z,1.30
2023-01-30T18:41:13.869Z,1.30
2023-01-30T18:43:44.043Z,1.30
2023-01-30T18:46:15.759Z,1.30
2023-01-30T18:48:46.629Z,1.30
2023-01-30T18:51:19.042Z,1.40
2023-01-30T18:53:53.567Z,1.40
2023-01-30T18:56:25.426Z,1.40
2023-01-30T18:58:56.721Z,1.40
2023-01-30T19:01:27.995Z,1.40
2023-01-30T19:03:58.549Z,1.30
2023-01-30T19:06:29.533Z,1.30
2023-01-30T19:09:02.118Z,1.40
2023-01-30T19:11:45.352Z,1.40
2023-01-30T19:14:15.476Z,1.40
2023-01-30T19:16:45.620Z,1.40
2023-01-30T19:19:15.895Z,1.40
2023-01-30T19:21:45.891Z,1.50
2023-01-30T19:24:19.474Z,1.40
2023-01-30T19:26:50.499Z,1.50
2023-01-30T19:29:21.050Z,1.50
2023-01-30T19:31:51.165Z,1.50
2023-01-30T19:34:21.338Z,1.50
2023-01-30T19:36:51.422Z,1.50
2023-01-30T19:39:24.262Z,1.50
2023-01-30T19:44:54.243Z,1.60
2023-01-30T19:47:24.522Z,1.70
2023-01-30T19:49:55.912Z,1.80
2023-01-30T19:52:26.092Z,1.80
2023-01-30T19:54:58.667Z,1.80
2023-01-30T19:57:28.603Z,1.80
2023-01-30T19:59:58.576Z,1.80
2023-01-30T20:02:30.152Z,1.80
2023-01-30T20:05:02.607Z,1.70
2023-01-30T20:07:32.579Z,1.70
2023-01-30T20:10:05.203Z,1.80
2023-01-30T20:12:35.757Z,1.80
2023-01-30T20:15:05.723Z,1.90
2023-01-30T20:17:36.035Z,1.80
2023-01-30T20:20:06.957Z,1.70
2023-01-30T20:22:37.186Z,1.60
2023-01-30T20:25:11.157Z,1.30
2023-01-30T20:27:41.717Z,1.10
2023-01-30T20:30:15.296Z,1.10
2023-01-30T20:32:46.058Z,1.10
2023-01-30T20:35:16.145Z,1.10
2023-01-30T20:37:46.138Z,1.00
2023-01-30T20:40:19.198Z,0.90
2023-01-30T20:42:49.311Z,0.90
2023-01-30T20:45:19.569Z,0.80
2023-01-30T20:47:49.799Z,0.80
2023-01-30T20:50:20.636Z,0.80
2023-01-30T20:52:52.643Z,0.80
2023-01-30T20:55:25.224Z,0.90
2023-01-30T20:57:55.204Z,0.90
2023-01-30T21:00:27.119Z,1.00
2023-01-30T21:02:57.083Z,1.00
2023-01-30T21:05:27.363Z,1.00
2023-01-30T21:07:57.338Z,1.10
2023-01-30T21:10:29.986Z,1.20
2023-01-30T21:12:59.919Z,1.20
2023-01-30T21:15:30.055Z,1.20
2023-01-30T21:18:01.509Z,1.20
2023-01-30T21:20:31.511Z,1.20
2023-01-30T21:23:01.468Z,1.20
2023-01-30T21:25:34.713Z,1.20
2023-01-30T21:28:05.698Z,1.10
2023-01-30T21:30:38.515Z,1.20
2023-01-30T21:33:08.589Z,1.20
2023-01-30T21:35:39.227Z,1.20
2023-01-30T21:38:21.622Z,1.30
2023-01-30T21:41:10.807Z,1.30
2023-01-30T21:43:41.068Z,1.30
2023-01-30T21:46:11.296Z,1.40
2023-01-30T21:48:41.278Z,1.40
2023-01-30T21:51:15.003Z,1.50
2023-01-30T21:53:44.923Z,1.40
2023-01-30T21:56:18.018Z,1.40
2023-01-30T21:58:47.958Z,1.50
2023-01-30T22:01:18.413Z,1.60
2023-01-30T22:03:48.420Z,1.70
2023-01-30T22:06:18.374Z,1.80
2023-01-30T22:08:48.492Z,1.80
2023-01-30T22:11:21.597Z,1.80
2023-01-30T22:13:51.923Z,1.80
2023-01-30T22:16:24.354Z,1.80
2023-01-30T22:18:55.980Z,1.80
2023-01-30T22:21:27.604Z,1.90
2023-01-30T22:23:58.155Z,2.10
2023-01-30T22:26:30.803Z,2.20
2023-01-30T22:29:02.082Z,2.20
2023-01-30T22:31:34.827Z,2.10
2023-01-30T22:34:05.725Z,2.10
2023-01-30T22:36:37.265Z,2.20
2023-01-30T22:39:07.838Z,2.30
2023-01-30T22:41:40.380Z,2.40
2023-01-30T22:44:12.280Z,2.30
2023-01-30T22:46:42.988Z,2.20
2023-01-30T22:49:13.245Z,2.10
2023-01-30T22:51:43.976Z,2.00
2023-01-30T22:54:16.329Z,2.00
2023-01-30T22:56:51.591Z,2.10
2023-01-30T22:59:21.817Z,2.20
2023-01-30T23:01:53.506Z,2.30
2023-01-30T23:04:24.643Z,2.20
2023-01-30T23:06:56.543Z,2.10
2023-01-30T23:09:26.605Z,2.10
2023-01-30T23:12:12.808Z,2.10
2023-01-30T23:14:43.121Z,2.10
2023-01-30T23:17:26.559Z,2.10
2023-01-30T23:19:56.907Z,2.10
2023-01-30T23:22:26.935Z,2.20
2023-01-30T23:24:56.881Z,2.20
2023-01-30T23:27:30.426Z,2.20
2023-01-30T23:30:00.376Z,2.20
2023-01-30T23:32:30.322Z,2.30
2023-01-30T23:35:00.269Z,2.40
2023-01-30T23:37:42.380Z,2.30
2023-01-30T23:40:14.883Z,2.40
2023-01-30T23:42:47.469Z,2.30
2023-01-30T23:45:18.007Z,2.20
2023-01-30T23:47:48.146Z,2.10
2023-01-30T23:50:18.284Z,2.10
2023-01-30T23:52:48.303Z,2.10
2023-01-30T23:55:18.720Z,2.10
2023-01-30T23:57:51.421Z,2.00
